Ajo, Arizona
Current Conditions -  °F | °C
As of 4:55 PM on Friday 31 Oct 2014 (Local Time) from KGXF Reporting Station
Few Clouds Few Clouds  
Wind Chill: 88°   Ceiling: Unl
Heat Index: 88°   Visibility: 10mi
Dew Point: 45°   Wind: 3mph
Humidity: 22%   Direction: 340°NNW
Pressure: 29.78"   Gusts: NA
Location:  32.37°N, 112.86°W
Report Text: KGXF 312355Z 34003KT 10SM FEW150 31/07 A2978 RMK SLP070 56016
Loading
Personal Weather Stations






























Interactive Weather Map
Tropical Storm Tracking
New forecast layout! Learn more

10-Day Weather Forecast

Advertisements
Track Severe Weather on mobile